createdAt,value
2019-03-30T00:01:19.402Z,100453.36
2019-03-30T00:03:50.411Z,100457.59
2019-03-30T00:06:21.161Z,100452.75
2019-03-30T00:08:52.507Z,100452.91
2019-03-30T00:11:22.901Z,100452.91
2019-03-30T00:13:54.222Z,100448.34
2019-03-30T00:16:24.355Z,100451.30
2019-03-30T00:18:56.812Z,100441.67
2019-03-30T00:21:27.099Z,100452.61
2019-03-30T00:23:57.167Z,100455.24
2019-03-30T00:26:29.182Z,100453.92
2019-03-30T00:29:04.263Z,100448.73
2019-03-30T00:31:35.090Z,100334.95
2019-03-30T00:34:08.371Z,100444.81
2019-03-30T00:36:38.760Z,100443.70
2019-03-30T00:39:09.597Z,100443.53
2019-03-30T00:41:40.107Z,100439.48
2019-03-30T00:44:10.649Z,100331.05
2019-03-30T00:46:40.986Z,100440.59
2019-03-30T00:49:11.533Z,100442.89
2019-03-30T00:51:41.575Z,100435.22
2019-03-30T00:54:13.121Z,100437.20
2019-03-30T00:56:45.397Z,100433.47
2019-03-30T00:59:15.646Z,100324.55
2019-03-30T01:01:46.910Z,100430.20
2019-03-30T01:04:18.463Z,100428.72
2019-03-30T01:06:48.746Z,100430.37
2019-03-30T01:09:18.818Z,100425.97
2019-03-30T01:11:49.584Z,100314.61
2019-03-30T01:14:21.648Z,100422.55
2019-03-30T01:16:51.843Z,100421.24
2019-03-30T01:19:25.148Z,100419.47
2019-03-30T01:21:56.301Z,100316.41
2019-03-30T01:24:26.442Z,100410.03
2019-03-30T01:26:59.323Z,100410.36
2019-03-30T01:29:29.359Z,100412.15
2019-03-30T01:32:00.511Z,100412.63
2019-03-30T01:34:31.879Z,100402.85
2019-03-30T01:37:03.226Z,100403.52
2019-03-30T01:39:33.854Z,100397.66
2019-03-30T01:42:04.270Z,100399.75
2019-03-30T01:44:37.371Z,100401.87
2019-03-30T01:47:07.408Z,100407.08
2019-03-30T01:49:39.462Z,100403.02
2019-03-30T01:52:09.652Z,100401.38
2019-03-30T01:54:39.970Z,100398.94
2019-03-30T01:57:10.456Z,100406.12
2019-03-30T01:59:40.568Z,100403.52
2019-03-30T02:02:11.050Z,100398.30
2019-03-30T02:04:41.250Z,100394.06
2019-03-30T02:07:14.077Z,100396.98
2019-03-30T02:09:44.451Z,100394.86
2019-03-30T02:12:17.566Z,100400.08
2019-03-30T02:14:47.901Z,100399.11
2019-03-30T02:17:20.103Z,100396.02
2019-03-30T02:19:50.339Z,100389.84
2019-03-30T02:22:20.993Z,100396.02
2019-03-30T02:24:51.590Z,100390.33
2019-03-30T02:27:21.839Z,100393.09
2019-03-30T02:29:52.347Z,100391.77
2019-03-30T02:32:26.896Z,100385.41
2019-03-30T02:34:59.842Z,100380.55
2019-03-30T02:37:30.270Z,100377.13
2019-03-30T02:40:00.556Z,100378.25
2019-03-30T02:42:33.822Z,100379.89
2019-03-30T02:45:07.083Z,100265.89
2019-03-30T02:47:37.226Z,100386.86
2019-03-30T02:50:09.125Z,100379.37
2019-03-30T02:52:39.290Z,100384.91
2019-03-30T02:55:12.564Z,100378.74
2019-03-30T02:57:41.706Z,100370.27
2019-03-30T03:00:17.436Z,100367.66
2019-03-30T03:02:49.675Z,100368.64
2019-03-30T03:05:20.918Z,100375.30
2019-03-30T03:07:51.000Z,100279.69
2019-03-30T03:10:22.854Z,100365.53
2019-03-30T03:12:53.263Z,100355.94
2019-03-30T03:15:23.273Z,100359.98
2019-03-30T03:17:53.671Z,100365.53
2019-03-30T03:20:24.244Z,100363.89
2019-03-30T03:22:57.394Z,100363.41
2019-03-30T03:25:27.880Z,100371.22
2019-03-30T03:27:58.073Z,100252.16
2019-03-30T03:30:28.061Z,100367.47
2019-03-30T03:32:58.225Z,100366.16
2019-03-30T03:35:31.022Z,100365.44
2019-03-30T03:38:01.411Z,100356.33
2019-03-30T03:40:31.489Z,100356.33
2019-03-30T03:43:01.589Z,100358.93
2019-03-30T03:45:36.115Z,100358.11
2019-03-30T03:48:06.261Z,100352.61
2019-03-30T03:50:46.875Z,100241.39
2019-03-30T03:53:18.635Z,100350.98
2019-03-30T03:55:48.888Z,100351.97
2019-03-30T03:58:20.917Z,100348.07
2019-03-30T04:00:54.129Z,100358.81
2019-03-30T04:03:26.701Z,100353.28
2019-03-30T04:05:59.296Z,100348.55
2019-03-30T04:08:34.103Z,100343.20
2019-03-30T04:11:05.676Z,100351.16
2019-03-30T04:13:38.786Z,100350.67
2019-03-30T04:16:09.057Z,100347.56
2019-03-30T04:18:39.695Z,100336.03
2019-03-30T04:21:09.790Z,100338.94
2019-03-30T04:23:39.825Z,100332.28
2019-03-30T04:26:14.363Z,100333.91
2019-03-30T04:28:44.424Z,100329.02
2019-03-30T04:31:14.519Z,100330.50
2019-03-30T04:33:44.567Z,100325.27
2019-03-30T04:36:17.982Z,100326.41
2019-03-30T04:38:48.100Z,100328.20
2019-03-30T04:41:19.967Z,100325.11
2019-03-30T04:43:51.031Z,100333.40
2019-03-30T04:46:21.022Z,100324.47
2019-03-30T04:48:51.122Z,100318.61
2019-03-30T04:51:21.156Z,100312.25
2019-03-30T04:53:52.890Z,100314.04
2019-03-30T04:56:23.599Z,100310.14
2019-03-30T04:58:54.751Z,100309.02
2019-03-30T05:01:24.929Z,100305.60
2019-03-30T05:03:56.123Z,100301.84
2019-03-30T05:06:26.219Z,100307.38
2019-03-30T05:08:56.273Z,100301.70
2019-03-30T05:11:26.852Z,100295.34
2019-03-30T05:13:59.582Z,100296.98
2019-03-30T05:16:30.014Z,100286.58
2019-03-30T05:19:00.062Z,100294.71
2019-03-30T05:21:33.489Z,100291.30
2019-03-30T05:24:03.666Z,100293.08
2019-03-30T05:26:35.156Z,100296.67
2019-03-30T05:29:05.562Z,100302.84
2019-03-30T05:31:36.712Z,100297.01
2019-03-30T05:34:08.119Z,100295.22
2019-03-30T05:36:38.433Z,100294.73
2019-03-30T05:39:08.547Z,100293.79
2019-03-30T05:41:38.634Z,100297.36
2019-03-30T05:44:09.035Z,100298.98
2019-03-30T05:46:40.575Z,100298.83
2019-03-30T05:49:10.653Z,100293.31
2019-03-30T05:51:40.686Z,100295.91
2019-03-30T05:54:10.711Z,100296.23
2019-03-30T05:56:41.057Z,100303.23
2019-03-30T05:59:12.551Z,100298.02
2019-03-30T06:01:42.639Z,100301.77
2019-03-30T06:04:13.059Z,100300.63
2019-03-30T06:06:43.055Z,100298.84
2019-03-30T06:09:14.838Z,100294.75
2019-03-30T06:11:45.159Z,100292.30
2019-03-30T06:14:15.294Z,100298.32
2019-03-30T06:16:45.473Z,100296.66
2019-03-30T06:19:15.543Z,100299.89
2019-03-30T06:21:46.164Z,100295.31
2019-03-30T06:24:16.308Z,100301.99
2019-03-30T06:26:47.868Z,100300.97
2019-03-30T06:29:21.857Z,100299.16
2019-03-30T06:31:52.226Z,100292.27
2019-03-30T06:34:25.464Z,100294.81
2019-03-30T06:36:57.699Z,100300.46
2019-03-30T06:39:30.859Z,100287.84
2019-03-30T06:42:00.901Z,100290.99
2019-03-30T06:44:31.757Z,100289.31
2019-03-30T06:47:06.317Z,100289.07
2019-03-30T06:49:36.396Z,100179.68
2019-03-30T06:52:06.476Z,100281.09
2019-03-30T06:54:36.664Z,100186.42
2019-03-30T06:57:06.696Z,100186.42
2019-03-30T06:59:36.710Z,100275.64
2019-03-30T07:02:08.867Z,100291.23
2019-03-30T07:04:38.964Z,100291.23
2019-03-30T07:07:10.225Z,100283.20
2019-03-30T07:09:41.248Z,100268.73
2019-03-30T07:12:17.395Z,100268.73
2019-03-30T07:14:49.507Z,100277.11
2019-03-30T07:17:20.454Z,100268.35
2019-03-30T07:19:54.063Z,100266.51
2019-03-30T07:22:24.588Z,100272.48
2019-03-30T07:24:57.367Z,100274.05
2019-03-30T07:27:30.527Z,100268.44
2019-03-30T07:30:00.565Z,100267.55
2019-03-30T07:32:30.830Z,100271.40
2019-03-30T07:35:01.247Z,100267.03
2019-03-30T07:37:31.462Z,100263.31
2019-03-30T07:40:04.559Z,100265.17
2019-03-30T07:42:35.698Z,100265.24
2019-03-30T07:45:06.347Z,100260.87
2019-03-30T07:47:36.403Z,100259.83
2019-03-30T07:50:06.727Z,100252.61
2019-03-30T07:52:36.864Z,100242.17
2019-03-30T07:55:10.186Z,100240.08
2019-03-30T07:57:41.206Z,100239.97
2019-03-30T08:00:16.071Z,100241.17
2019-03-30T08:02:46.380Z,100239.63
2019-03-30T08:05:18.240Z,100235.65
2019-03-30T08:07:48.395Z,100228.92
2019-03-30T08:10:19.094Z,100228.09
2019-03-30T08:12:49.600Z,100229.48
2019-03-30T08:15:20.132Z,100225.09
2019-03-30T08:17:50.671Z,100222.47
2019-03-30T08:20:22.198Z,100236.59
2019-03-30T08:22:52.713Z,100227.94
2019-03-30T08:25:24.445Z,100217.36
2019-03-30T08:27:54.519Z,100218.97
2019-03-30T08:30:24.572Z,100221.38
2019-03-30T08:32:55.439Z,100214.74
2019-03-30T08:35:28.388Z,100218.08
2019-03-30T08:37:58.511Z,100212.33
2019-03-30T08:40:29.104Z,100215.92
2019-03-30T08:42:59.844Z,100216.41
2019-03-30T08:45:32.520Z,100215.00
2019-03-30T08:48:03.088Z,100209.14
2019-03-30T08:50:35.079Z,100120.06
2019-03-30T08:53:07.904Z,100210.09
2019-03-30T08:55:40.905Z,100208.91
2019-03-30T08:58:13.005Z,100198.09
2019-03-30T09:00:45.753Z,100196.33
2019-03-30T09:03:18.964Z,100203.64
2019-03-30T09:05:51.432Z,100202.88
2019-03-30T09:08:21.638Z,100130.06
2019-03-30T09:10:56.972Z,100189.83
2019-03-30T09:13:28.984Z,100185.58
2019-03-30T09:15:59.835Z,100187.08
2019-03-30T09:18:35.885Z,100182.67
2019-03-30T09:21:11.375Z,100181.16
2019-03-30T09:23:44.667Z,100184.00
2019-03-30T09:26:16.815Z,100171.16
2019-03-30T09:28:48.497Z,100179.72
2019-03-30T09:31:20.595Z,100175.32
2019-03-30T09:33:51.610Z,100171.31
2019-03-30T09:36:22.504Z,100169.42
2019-03-30T09:38:53.164Z,100175.10
2019-03-30T09:41:27.146Z,100161.18
2019-03-30T09:43:59.699Z,100162.17
2019-03-30T09:46:30.185Z,99992.55
2019-03-30T09:49:01.974Z,100159.11
2019-03-30T09:51:33.445Z,100160.78
2019-03-30T09:54:05.082Z,100155.48
2019-03-30T09:56:35.709Z,100163.20
2019-03-30T09:59:06.341Z,100152.05
2019-03-30T10:01:37.752Z,100150.02
2019-03-30T10:04:08.570Z,100148.55
2019-03-30T10:06:40.553Z,100148.91
2019-03-30T10:09:11.616Z,100149.73
2019-03-30T10:11:42.964Z,100144.43
2019-03-30T10:14:15.312Z,100145.83
2019-03-30T10:16:50.475Z,100140.64
2019-03-30T10:19:22.071Z,100141.27
2019-03-30T10:21:52.929Z,100137.03
2019-03-30T10:24:37.484Z,100145.53
2019-03-30T10:26:56.436Z,100139.81
2019-03-30T10:29:26.637Z,100126.67
2019-03-30T10:32:04.785Z,100127.48
2019-03-30T10:34:39.608Z,100124.63
2019-03-30T10:37:18.267Z,100124.31
2019-03-30T10:39:51.472Z,100038.40
2019-03-30T10:42:26.825Z,100115.47
2019-03-30T10:44:57.775Z,100116.52
2019-03-30T10:47:29.847Z,100118.55
2019-03-30T10:50:02.233Z,100118.61
2019-03-30T10:52:36.742Z,100049.34
2019-03-30T10:55:08.809Z,100020.00
2019-03-30T10:57:40.708Z,100098.56
2019-03-30T11:00:12.501Z,100090.48
2019-03-30T11:02:44.697Z,100091.48
2019-03-30T11:05:25.257Z,100087.72
2019-03-30T11:07:57.589Z,100084.48
2019-03-30T11:10:31.166Z,100090.66
2019-03-30T11:13:01.964Z,100083.57
2019-03-30T11:15:34.266Z,100086.56
2019-03-30T11:18:06.023Z,100080.55
2019-03-30T11:20:39.318Z,100070.30
2019-03-30T11:23:17.148Z,100070.06
2019-03-30T11:25:50.481Z,100074.20
2019-03-30T11:28:23.716Z,100072.70
2019-03-30T11:30:57.585Z,100067.97
2019-03-30T11:33:30.637Z,100058.09
2019-03-30T11:36:07.360Z,100064.77
2019-03-30T11:38:44.932Z,100055.33
2019-03-30T11:41:24.806Z,100050.85
2019-03-30T11:43:54.886Z,100049.12
2019-03-30T11:46:29.271Z,100050.25
2019-03-30T11:49:01.643Z,100038.45
2019-03-30T11:51:32.959Z,100034.65
2019-03-30T11:54:05.442Z,100041.86
2019-03-30T11:56:36.053Z,100030.73
2019-03-30T11:59:07.449Z,100029.95
2019-03-30T12:01:38.473Z,100022.75
2019-03-30T12:04:09.349Z,100027.30
2019-03-30T12:06:42.943Z,100012.55
2019-03-30T12:09:14.896Z,100005.86
2019-03-30T12:11:46.870Z,100006.80
2019-03-30T12:14:18.486Z,100006.26
2019-03-30T12:16:52.352Z,100001.26
2019-03-30T12:19:22.513Z,99987.23
2019-03-30T12:21:52.573Z,99987.80
2019-03-30T12:24:22.730Z,99979.56
2019-03-30T12:26:55.685Z,99977.66
2019-03-30T12:29:26.196Z,99975.59
2019-03-30T12:31:59.050Z,99959.41
2019-03-30T12:34:29.266Z,99960.73
2019-03-30T12:37:00.859Z,99953.35
2019-03-30T12:39:31.142Z,99953.38
2019-03-30T12:42:01.567Z,99948.30
2019-03-30T12:44:32.190Z,99933.92
2019-03-30T12:47:03.652Z,99938.70
2019-03-30T12:49:34.688Z,99940.30
2019-03-30T12:52:06.060Z,99937.65
2019-03-30T12:54:39.112Z,99934.17
2019-03-30T12:57:10.477Z,99930.44
2019-03-30T12:59:41.556Z,99922.72
2019-03-30T13:02:13.079Z,99930.45
2019-03-30T13:04:45.074Z,99914.19
2019-03-30T13:07:19.659Z,99913.11
2019-03-30T13:09:49.773Z,99909.61
2019-03-30T13:12:20.305Z,99906.12
2019-03-30T13:14:50.533Z,99897.05
2019-03-30T13:17:23.691Z,99896.22
2019-03-30T13:20:00.879Z,99889.77
2019-03-30T13:22:33.884Z,99890.59
2019-03-30T13:25:07.991Z,99886.33
2019-03-30T13:27:38.954Z,99881.34
2019-03-30T13:30:12.665Z,99878.45
2019-03-30T13:32:43.339Z,99875.53
2019-03-30T13:35:13.995Z,99872.30
2019-03-30T13:37:45.462Z,99862.05
2019-03-30T13:40:16.305Z,99860.30
2019-03-30T13:42:47.551Z,99855.66
2019-03-30T13:45:17.838Z,99863.95
2019-03-30T13:47:49.422Z,99854.13
2019-03-30T13:50:19.602Z,99849.73
2019-03-30T13:52:49.891Z,99845.36
2019-03-30T13:55:22.825Z,99841.31
2019-03-30T13:57:54.028Z,99847.36
2019-03-30T14:00:24.580Z,99844.52
2019-03-30T14:02:55.128Z,99843.05
2019-03-30T14:05:25.338Z,99843.28
2019-03-30T14:07:55.418Z,99844.38
2019-03-30T14:10:25.518Z,99846.31
2019-03-30T14:12:55.587Z,99836.38
2019-03-30T14:15:25.609Z,99830.63
2019-03-30T14:17:55.930Z,99835.63
2019-03-30T14:20:29.211Z,99828.72
2019-03-30T14:23:01.127Z,99829.97
2019-03-30T14:25:32.301Z,99821.45
2019-03-30T14:28:03.067Z,99836.38
2019-03-30T14:30:33.327Z,99823.59
2019-03-30T14:33:03.428Z,99813.81
2019-03-30T14:35:34.131Z,99814.69
2019-03-30T14:38:04.490Z,99810.03
2019-03-30T14:40:34.711Z,99807.58
2019-03-30T14:43:05.159Z,99806.10
2019-03-30T14:45:35.394Z,99802.06
2019-03-30T14:48:05.644Z,99798.55
2019-03-30T14:50:37.587Z,99798.32
2019-03-30T14:53:08.091Z,99707.90
2019-03-30T14:55:39.697Z,99795.13
2019-03-30T14:58:11.338Z,99784.11
2019-03-30T15:00:42.809Z,99777.62
2019-03-30T15:03:14.781Z,99783.60
2019-03-30T15:05:45.970Z,99780.98
2019-03-30T15:08:17.797Z,99771.83
2019-03-30T15:10:48.232Z,99775.55
2019-03-30T15:13:20.119Z,99687.63
2019-03-30T15:15:53.322Z,99776.17
2019-03-30T15:18:23.499Z,99774.08
2019-03-30T15:20:53.593Z,99761.56
2019-03-30T15:23:27.171Z,99765.41
2019-03-30T15:25:57.369Z,99761.37
2019-03-30T15:28:27.406Z,99758.39
2019-03-30T15:30:57.763Z,99760.57
2019-03-30T15:33:27.831Z,99757.16
2019-03-30T15:35:57.915Z,99755.28
2019-03-30T15:38:28.171Z,99755.30
2019-03-30T15:41:01.392Z,99757.74
2019-03-30T15:43:38.657Z,99750.80
2019-03-30T15:46:07.030Z,99747.02
2019-03-30T15:48:38.332Z,99742.27
2019-03-30T15:51:09.588Z,99736.47
2019-03-30T15:53:39.741Z,99739.63
2019-03-30T15:56:09.955Z,99740.43
2019-03-30T15:58:40.530Z,99737.28
2019-03-30T16:01:10.582Z,99735.14
2019-03-30T16:03:43.511Z,99739.64
2019-03-30T16:06:14.285Z,99732.47
2019-03-30T16:08:44.475Z,99727.09
2019-03-30T16:11:14.725Z,99729.45
2019-03-30T16:13:45.389Z,99723.58
2019-03-30T16:16:15.587Z,99719.30
2019-03-30T16:18:45.598Z,99725.22
2019-03-30T16:21:16.359Z,99719.40
2019-03-30T16:23:46.423Z,99722.38
2019-03-30T16:26:16.595Z,99725.66
2019-03-30T16:28:46.775Z,99717.70
2019-03-30T16:31:18.470Z,99721.81
2019-03-30T16:33:48.486Z,99721.08
2019-03-30T16:36:22.701Z,99719.48
2019-03-30T16:38:57.324Z,99722.41
2019-03-30T16:41:28.236Z,99722.20
2019-03-30T16:43:59.463Z,99726.85
2019-03-30T16:46:29.894Z,99722.33
2019-03-30T16:49:01.194Z,99720.80
2019-03-30T16:51:31.375Z,99627.69
2019-03-30T16:54:01.534Z,99716.02
2019-03-30T16:56:31.602Z,99713.38
2019-03-30T16:59:05.524Z,99675.34
2019-03-30T17:01:35.899Z,99706.98
2019-03-30T17:04:06.308Z,99710.17
2019-03-30T17:06:36.423Z,99708.86
2019-03-30T17:09:08.301Z,99704.86
2019-03-30T17:11:38.448Z,99707.78
2019-03-30T17:14:10.490Z,99707.77
2019-03-30T17:16:40.606Z,99704.53
2019-03-30T17:19:10.733Z,99705.58
2019-03-30T17:21:42.677Z,99708.44
2019-03-30T17:24:16.250Z,99705.80
2019-03-30T17:26:46.732Z,99703.35
2019-03-30T17:29:21.069Z,99613.53
2019-03-30T17:31:51.229Z,99705.97
2019-03-30T17:34:21.428Z,99705.91
2019-03-30T17:36:52.982Z,99708.22
2019-03-30T17:39:29.292Z,99710.02
2019-03-30T17:41:59.564Z,99712.63
2019-03-30T17:44:33.845Z,99710.92
2019-03-30T17:47:06.889Z,99710.05
2019-03-30T17:49:37.413Z,99711.25
2019-03-30T17:52:08.814Z,99719.39
2019-03-30T17:54:39.981Z,99716.58
2019-03-30T17:57:11.467Z,99720.69
2019-03-30T17:59:41.595Z,99715.58
2019-03-30T18:02:11.866Z,99715.73
2019-03-30T18:04:42.060Z,99720.42
2019-03-30T18:07:13.884Z,99722.46
2019-03-30T18:09:44.421Z,99726.43
2019-03-30T18:12:20.374Z,99731.95
2019-03-30T18:14:49.534Z,99728.45
2019-03-30T18:17:19.875Z,99732.05
2019-03-30T18:19:50.696Z,99737.53
2019-03-30T18:22:20.865Z,99735.82
2019-03-30T18:24:51.101Z,99738.34
2019-03-30T18:27:22.525Z,99738.22
2019-03-30T18:29:53.077Z,99743.31
2019-03-30T18:32:25.093Z,99745.84
2019-03-30T18:34:54.554Z,99743.88
2019-03-30T18:37:27.792Z,99746.95
2019-03-30T18:39:58.802Z,99750.56
2019-03-30T18:42:29.207Z,99752.36
2019-03-30T18:45:03.775Z,99756.77
2019-03-30T18:47:34.555Z,99765.13
2019-03-30T18:50:06.191Z,99763.17
2019-03-30T18:52:37.674Z,99760.95
2019-03-30T18:55:08.028Z,99762.78
2019-03-30T18:57:38.351Z,99759.72
2019-03-30T19:00:09.101Z,99760.67
2019-03-30T19:02:39.305Z,99764.78
2019-03-30T19:05:09.486Z,99766.08
2019-03-30T19:07:39.843Z,99764.90
2019-03-30T19:10:10.433Z,99773.48
2019-03-30T19:12:40.652Z,99766.99
2019-03-30T19:15:11.161Z,99789.97
2019-03-30T19:17:41.321Z,99776.06
2019-03-30T19:20:12.345Z,99768.84
2019-03-30T19:22:42.778Z,99768.69
2019-03-30T19:25:16.279Z,99767.21
2019-03-30T19:27:46.621Z,99765.22
2019-03-30T19:30:20.688Z,99765.31
2019-03-30T19:32:51.052Z,99766.24
2019-03-30T19:35:22.608Z,99766.37
2019-03-30T19:37:53.819Z,99766.08
2019-03-30T19:40:25.653Z,99758.98
2019-03-30T19:42:56.238Z,99758.08
2019-03-30T19:45:26.440Z,99750.50
2019-03-30T19:47:57.702Z,99752.81
2019-03-30T19:50:29.243Z,99755.56
2019-03-30T19:52:59.331Z,99761.83
2019-03-30T19:55:29.564Z,99755.31
2019-03-30T19:58:03.827Z,99758.69
2019-03-30T20:00:33.985Z,99753.22
2019-03-30T20:03:04.264Z,99757.66
2019-03-30T20:05:35.592Z,99760.69
2019-03-30T20:08:11.898Z,99644.76
2019-03-30T20:10:38.473Z,99756.84
2019-03-30T20:13:09.331Z,99757.01
2019-03-30T20:15:40.256Z,99758.52
2019-03-30T20:18:10.958Z,99762.30
2019-03-30T20:20:41.419Z,99761.16
2019-03-30T20:23:12.643Z,99766.73
2019-03-30T20:25:42.841Z,99763.72
2019-03-30T20:28:13.226Z,99761.67
2019-03-30T20:30:43.297Z,99756.98
2019-03-30T20:33:13.529Z,99754.16
2019-03-30T20:35:44.131Z,99758.33
2019-03-30T20:38:19.270Z,99749.57
2019-03-30T20:40:49.590Z,99747.08
2019-03-30T20:43:22.819Z,99751.49
2019-03-30T20:45:53.007Z,99744.14
2019-03-30T20:48:23.361Z,99744.95
2019-03-30T20:50:53.785Z,99749.20
2019-03-30T20:53:27.322Z,99748.81
2019-03-30T20:56:00.557Z,99749.18
2019-03-30T20:58:32.781Z,99750.91
2019-03-30T21:01:02.934Z,99747.25
2019-03-30T21:03:34.954Z,99752.47
2019-03-30T21:06:05.597Z,99755.64
2019-03-30T21:08:37.059Z,99767.51
2019-03-30T21:11:08.568Z,99785.29
2019-03-30T21:13:40.264Z,99733.34
2019-03-30T21:16:10.540Z,99774.24
2019-03-30T21:18:40.940Z,99777.30
2019-03-30T21:21:11.727Z,99775.77
2019-03-30T21:23:42.006Z,99775.24
2019-03-30T21:26:12.479Z,99772.95
2019-03-30T21:28:42.930Z,99776.56
2019-03-30T21:31:14.147Z,99775.55
2019-03-30T21:33:44.259Z,99774.45
2019-03-30T21:36:14.756Z,99777.77
2019-03-30T21:38:44.781Z,99777.00
2019-03-30T21:41:17.827Z,99782.52
2019-03-30T21:43:48.014Z,99778.14
2019-03-30T21:46:18.063Z,99785.62
2019-03-30T21:48:52.946Z,99778.09
2019-03-30T21:51:26.206Z,99782.63
2019-03-30T21:53:56.268Z,99785.05
2019-03-30T21:56:26.647Z,99784.39
2019-03-30T21:58:59.966Z,99782.66
2019-03-30T22:01:30.211Z,99787.58
2019-03-30T22:04:01.989Z,99784.72
2019-03-30T22:06:32.551Z,99786.91
2019-03-30T22:09:06.901Z,99787.87
2019-03-30T22:11:37.116Z,99784.14
2019-03-30T22:14:07.257Z,99786.71
2019-03-30T22:16:38.918Z,99790.78
2019-03-30T22:19:08.989Z,99795.03
2019-03-30T22:21:39.331Z,99793.47
2019-03-30T22:24:09.609Z,99791.71
2019-03-30T22:26:41.923Z,99798.95
2019-03-30T22:29:13.737Z,99803.34
2019-03-30T22:31:44.568Z,99800.11
2019-03-30T22:34:14.998Z,99803.40
2019-03-30T22:36:45.427Z,99797.33
2019-03-30T22:39:15.557Z,99799.16
2019-03-30T22:41:45.659Z,99802.05
2019-03-30T22:44:20.411Z,99802.28
2019-03-30T22:46:50.518Z,99807.66
2019-03-30T22:49:21.249Z,99797.19
2019-03-30T22:51:51.979Z,99796.39
2019-03-30T22:54:22.048Z,99800.98
2019-03-30T22:56:55.264Z,99803.80
2019-03-30T22:59:25.313Z,99802.19
2019-03-30T23:01:55.646Z,99800.30
2019-03-30T23:04:26.184Z,99805.09
2019-03-30T23:06:58.542Z,99811.61
2019-03-30T23:09:28.824Z,99809.46
2019-03-30T23:12:01.784Z,99806.33
2019-03-30T23:14:34.643Z,99802.66
2019-03-30T23:17:08.338Z,99802.08
2019-03-30T23:19:38.449Z,99802.80
2019-03-30T23:22:08.580Z,99806.97
2019-03-30T23:24:42.178Z,99810.84
2019-03-30T23:27:12.450Z,99807.24
2019-03-30T23:29:42.546Z,99810.84
2019-03-30T23:32:15.914Z,99805.96
2019-03-30T23:34:48.150Z,99808.41
2019-03-30T23:37:19.511Z,99800.73
2019-03-30T23:39:49.569Z,99800.67
2019-03-30T23:42:20.181Z,99801.77
2019-03-30T23:44:50.334Z,99795.72
2019-03-30T23:47:20.592Z,99793.90
2019-03-30T23:49:51.517Z,99805.95
2019-03-30T23:52:22.165Z,99802.61
2019-03-30T23:54:56.081Z,99807.35
2019-03-30T23:57:26.187Z,99810.91
2019-03-30T23:59:56.291Z,99809.92
